sensor_id;sensor_type;location;lat;lon;timestamp;P1;durP1;ratioP1;P2;durP2;ratioP2
69203;SDS011;56317;27.658;85.326;2023-08-07T00:02:02;6.10;;;3.38;;
69203;SDS011;56317;27.658;85.326;2023-08-07T00:04:29;5.53;;;3.33;;
69203;SDS011;56317;27.658;85.326;2023-08-07T00:06:56;6.90;;;3.25;;
69203;SDS011;56317;27.658;85.326;2023-08-07T00:09:23;6.15;;;3.35;;
69203;SDS011;56317;27.658;85.326;2023-08-07T00:11:50;8.10;;;3.83;;
69203;SDS011;56317;27.658;85.326;2023-08-07T00:14:18;8.90;;;4.75;;
69203;SDS011;56317;27.658;85.326;2023-08-07T00:16:45;12.43;;;7.00;;
69203;SDS011;56317;27.658;85.326;2023-08-07T00:19:12;19.63;;;10.20;;
69203;SDS011;56317;27.658;85.326;2023-08-07T00:21:39;17.35;;;10.52;;
69203;SDS011;56317;27.658;85.326;2023-08-07T00:24:07;20.33;;;12.45;;
69203;SDS011;56317;27.658;85.326;2023-08-07T00:26:34;21.50;;;12.98;;
69203;SDS011;56317;27.658;85.326;2023-08-07T00:29:01;23.83;;;12.40;;
69203;SDS011;56317;27.658;85.326;2023-08-07T00:31:28;23.70;;;13.73;;
69203;SDS011;56317;27.658;85.326;2023-08-07T00:33:59;17.52;;;10.98;;
69203;SDS011;56317;27.658;85.326;2023-08-07T00:36:27;16.38;;;9.80;;
69203;SDS011;56317;27.658;85.326;2023-08-07T00:38:55;19.92;;;10.57;;
69203;SDS011;56317;27.658;85.326;2023-08-07T00:41:22;13.02;;;7.47;;
69203;SDS011;56317;27.658;85.326;2023-08-07T00:43:49;12.85;;;7.35;;
69203;SDS011;56317;27.658;85.326;2023-08-07T00:46:17;11.15;;;7.07;;
69203;SDS011;56317;27.658;85.326;2023-08-07T00:48:45;14.18;;;7.07;;
69203;SDS011;56317;27.658;85.326;2023-08-07T00:51:12;9.77;;;6.20;;
69203;SDS011;56317;27.658;85.326;2023-08-07T00:53:40;11.13;;;6.03;;
69203;SDS011;56317;27.658;85.326;2023-08-07T00:56:09;10.65;;;6.05;;
69203;SDS011;56317;27.658;85.326;2023-08-07T00:58:37;8.45;;;4.68;;
69203;SDS011;56317;27.658;85.326;2023-08-07T01:01:05;8.13;;;3.97;;
69203;SDS011;56317;27.658;85.326;2023-08-07T01:03:33;6.57;;;3.63;;
69203;SDS011;56317;27.658;85.326;2023-08-07T01:06:01;7.50;;;3.78;;
69203;SDS011;56317;27.658;85.326;2023-08-07T01:08:28;5.93;;;3.33;;
69203;SDS011;56317;27.658;85.326;2023-08-07T01:14:08;7.05;;;3.60;;
69203;SDS011;56317;27.658;85.326;2023-08-07T01:17:00;6.70;;;3.15;;
69203;SDS011;56317;27.658;85.326;2023-08-07T01:19:32;5.03;;;2.80;;
69203;SDS011;56317;27.658;85.326;2023-08-07T01:24:42;7.13;;;3.35;;
69203;SDS011;56317;27.658;85.326;2023-08-07T01:27:33;8.95;;;4.35;;
69203;SDS011;56317;27.658;85.326;2023-08-07T01:35:49;8.73;;;4.78;;
69203;SDS011;56317;27.658;85.326;2023-08-07T01:38:20;7.93;;;3.63;;
69203;SDS011;56317;27.658;85.326;2023-08-07T01:40:50;8.10;;;4.22;;
69203;SDS011;56317;27.658;85.326;2023-08-07T01:43:18;7.25;;;4.25;;
69203;SDS011;56317;27.658;85.326;2023-08-07T01:45:45;9.95;;;6.18;;
69203;SDS011;56317;27.658;85.326;2023-08-07T01:48:13;8.57;;;4.20;;
69203;SDS011;56317;27.658;85.326;2023-08-07T01:50:40;8.27;;;4.40;;
69203;SDS011;56317;27.658;85.326;2023-08-07T01:53:07;7.00;;;3.60;;
69203;SDS011;56317;27.658;85.326;2023-08-07T01:55:34;6.82;;;3.78;;
69203;SDS011;56317;27.658;85.326;2023-08-07T01:58:01;7.68;;;4.07;;
69203;SDS011;56317;27.658;85.326;2023-08-07T02:00:28;7.90;;;3.95;;
69203;SDS011;56317;27.658;85.326;2023-08-07T02:02:57;8.73;;;4.35;;
69203;SDS011;56317;27.658;85.326;2023-08-07T02:05:24;10.48;;;4.55;;
69203;SDS011;56317;27.658;85.326;2023-08-07T02:07:51;7.55;;;3.88;;
69203;SDS011;56317;27.658;85.326;2023-08-07T02:10:18;7.85;;;3.85;;
69203;SDS011;56317;27.658;85.326;2023-08-07T02:12:45;6.22;;;3.15;;
69203;SDS011;56317;27.658;85.326;2023-08-07T02:15:12;6.90;;;3.78;;
69203;SDS011;56317;27.658;85.326;2023-08-07T02:17:39;8.07;;;4.28;;
69203;SDS011;56317;27.658;85.326;2023-08-07T02:20:06;7.85;;;3.83;;
69203;SDS011;56317;27.658;85.326;2023-08-07T02:22:34;7.50;;;3.38;;
69203;SDS011;56317;27.658;85.326;2023-08-07T02:25:01;8.77;;;5.35;;
69203;SDS011;56317;27.658;85.326;2023-08-07T02:27:28;10.00;;;5.18;;
69203;SDS011;56317;27.658;85.326;2023-08-07T02:29:55;11.63;;;5.80;;
69203;SDS011;56317;27.658;85.326;2023-08-07T02:32:23;8.55;;;4.90;;
69203;SDS011;56317;27.658;85.326;2023-08-07T02:34:50;9.32;;;5.07;;
69203;SDS011;56317;27.658;85.326;2023-08-07T02:37:17;11.00;;;6.10;;
69203;SDS011;56317;27.658;85.326;2023-08-07T02:39:46;9.48;;;5.43;;
69203;SDS011;56317;27.658;85.326;2023-08-07T02:42:13;9.30;;;6.13;;
69203;SDS011;56317;27.658;85.326;2023-08-07T02:44:40;11.25;;;6.25;;
69203;SDS011;56317;27.658;85.326;2023-08-07T02:47:07;11.25;;;6.00;;
69203;SDS011;56317;27.658;85.326;2023-08-07T02:49:34;10.80;;;7.03;;
69203;SDS011;56317;27.658;85.326;2023-08-07T02:52:01;10.48;;;6.45;;
69203;SDS011;56317;27.658;85.326;2023-08-07T02:54:29;10.38;;;6.47;;
69203;SDS011;56317;27.658;85.326;2023-08-07T02:56:56;10.73;;;6.93;;
69203;SDS011;56317;27.658;85.326;2023-08-07T02:59:24;11.18;;;7.05;;
69203;SDS011;56317;27.658;85.326;2023-08-07T03:01:51;11.40;;;7.22;;
69203;SDS011;56317;27.658;85.326;2023-08-07T03:04:18;10.48;;;6.35;;
69203;SDS011;56317;27.658;85.326;2023-08-07T03:06:45;13.55;;;6.25;;
69203;SDS011;56317;27.658;85.326;2023-08-07T03:09:12;11.88;;;6.05;;
69203;SDS011;56317;27.658;85.326;2023-08-07T03:11:40;12.30;;;5.90;;
69203;SDS011;56317;27.658;85.326;2023-08-07T03:14:07;10.48;;;5.90;;
69203;SDS011;56317;27.658;85.326;2023-08-07T03:16:34;9.38;;;5.97;;
69203;SDS011;56317;27.658;85.326;2023-08-07T03:19:01;11.93;;;6.78;;
69203;SDS011;56317;27.658;85.326;2023-08-07T03:21:28;10.40;;;6.75;;
69203;SDS011;56317;27.658;85.326;2023-08-07T03:23:56;12.90;;;6.22;;
69203;SDS011;56317;27.658;85.326;2023-08-07T03:26:23;11.38;;;6.22;;
69203;SDS011;56317;27.658;85.326;2023-08-07T03:28:50;11.48;;;6.72;;
69203;SDS011;56317;27.658;85.326;2023-08-07T03:31:17;11.93;;;6.65;;
69203;SDS011;56317;27.658;85.326;2023-08-07T03:33:44;9.75;;;6.25;;
69203;SDS011;56317;27.658;85.326;2023-08-07T03:36:11;13.02;;;6.45;;
69203;SDS011;56317;27.658;85.326;2023-08-07T03:38:38;10.77;;;6.78;;
69203;SDS011;56317;27.658;85.326;2023-08-07T03:41:06;9.63;;;6.53;;
69203;SDS011;56317;27.658;85.326;2023-08-07T03:43:33;13.02;;;6.47;;
69203;SDS011;56317;27.658;85.326;2023-08-07T03:46:00;16.80;;;7.13;;
69203;SDS011;56317;27.658;85.326;2023-08-07T03:48:27;21.50;;;7.20;;
69203;SDS011;56317;27.658;85.326;2023-08-07T03:51:01;13.43;;;7.50;;
69203;SDS011;56317;27.658;85.326;2023-08-07T03:53:29;15.25;;;8.98;;
69203;SDS011;56317;27.658;85.326;2023-08-07T03:55:56;19.27;;;9.57;;
69203;SDS011;56317;27.658;85.326;2023-08-07T03:58:24;16.75;;;9.82;;
69203;SDS011;56317;27.658;85.326;2023-08-07T04:00:51;17.33;;;10.32;;
69203;SDS011;56317;27.658;85.326;2023-08-07T04:03:19;17.52;;;10.77;;
69203;SDS011;56317;27.658;85.326;2023-08-07T04:05:47;18.45;;;11.15;;
69203;SDS011;56317;27.658;85.326;2023-08-07T04:08:19;17.73;;;9.52;;
69203;SDS011;56317;27.658;85.326;2023-08-07T04:11:03;16.48;;;9.80;;
69203;SDS011;56317;27.658;85.326;2023-08-07T04:13:31;17.08;;;11.23;;
69203;SDS011;56317;27.658;85.326;2023-08-07T04:15:58;16.45;;;10.15;;
69203;SDS011;56317;27.658;85.326;2023-08-07T04:18:30;17.60;;;10.90;;
69203;SDS011;56317;27.658;85.326;2023-08-07T04:20:58;17.88;;;10.13;;
69203;SDS011;56317;27.658;85.326;2023-08-07T04:23:25;15.70;;;9.73;;
69203;SDS011;56317;27.658;85.326;2023-08-07T04:25:53;15.00;;;10.50;;
69203;SDS011;56317;27.658;85.326;2023-08-07T04:28:20;14.02;;;10.02;;
69203;SDS011;56317;27.658;85.326;2023-08-07T04:30:51;16.23;;;9.55;;
69203;SDS011;56317;27.658;85.326;2023-08-07T04:33:18;16.87;;;11.27;;
69203;SDS011;56317;27.658;85.326;2023-08-07T04:35:46;14.98;;;9.73;;
69203;SDS011;56317;27.658;85.326;2023-08-07T04:38:14;17.33;;;10.90;;
69203;SDS011;56317;27.658;85.326;2023-08-07T04:40:48;16.55;;;10.88;;
69203;SDS011;56317;27.658;85.326;2023-08-07T04:43:16;12.52;;;8.65;;
69203;SDS011;56317;27.658;85.326;2023-08-07T04:45:48;13.80;;;9.25;;
69203;SDS011;56317;27.658;85.326;2023-08-07T04:48:15;12.20;;;8.55;;
69203;SDS011;56317;27.658;85.326;2023-08-07T04:50:43;12.82;;;8.77;;
69203;SDS011;56317;27.658;85.326;2023-08-07T04:53:10;13.68;;;8.65;;
69203;SDS011;56317;27.658;85.326;2023-08-07T04:55:38;15.43;;;9.15;;
69203;SDS011;56317;27.658;85.326;2023-08-07T04:58:05;13.48;;;8.18;;
69203;SDS011;56317;27.658;85.326;2023-08-07T05:00:32;12.60;;;8.85;;
69203;SDS011;56317;27.658;85.326;2023-08-07T05:03:00;16.48;;;9.80;;
69203;SDS011;56317;27.658;85.326;2023-08-07T05:05:27;13.48;;;8.40;;
69203;SDS011;56317;27.658;85.326;2023-08-07T05:07:54;14.43;;;9.68;;
69203;SDS011;56317;27.658;85.326;2023-08-07T05:10:22;14.80;;;8.95;;
69203;SDS011;56317;27.658;85.326;2023-08-07T05:12:49;18.20;;;12.23;;
69203;SDS011;56317;27.658;85.326;2023-08-07T05:15:22;18.85;;;11.73;;
69203;SDS011;56317;27.658;85.326;2023-08-07T05:17:50;18.33;;;12.02;;
69203;SDS011;56317;27.658;85.326;2023-08-07T05:20:18;18.23;;;11.45;;
69203;SDS011;56317;27.658;85.326;2023-08-07T05:22:45;16.88;;;10.88;;
69203;SDS011;56317;27.658;85.326;2023-08-07T05:25:13;16.73;;;10.90;;
69203;SDS011;56317;27.658;85.326;2023-08-07T05:27:46;19.88;;;10.85;;
69203;SDS011;56317;27.658;85.326;2023-08-07T05:30:13;15.70;;;11.52;;
69203;SDS011;56317;27.658;85.326;2023-08-07T05:32:41;17.95;;;11.93;;
69203;SDS011;56317;27.658;85.326;2023-08-07T05:35:08;15.00;;;10.30;;
69203;SDS011;56317;27.658;85.326;2023-08-07T05:37:36;15.90;;;10.65;;
69203;SDS011;56317;27.658;85.326;2023-08-07T05:40:04;19.67;;;11.82;;
69203;SDS011;56317;27.658;85.326;2023-08-07T05:42:32;18.60;;;11.15;;
69203;SDS011;56317;27.658;85.326;2023-08-07T05:45:00;15.95;;;11.57;;
69203;SDS011;56317;27.658;85.326;2023-08-07T05:47:28;16.52;;;10.38;;
69203;SDS011;56317;27.658;85.326;2023-08-07T05:49:55;17.00;;;11.25;;
69203;SDS011;56317;27.658;85.326;2023-08-07T05:52:22;19.38;;;11.98;;
69203;SDS011;56317;27.658;85.326;2023-08-07T05:54:50;19.33;;;11.88;;
69203;SDS011;56317;27.658;85.326;2023-08-07T05:57:17;19.58;;;12.02;;
69203;SDS011;56317;27.658;85.326;2023-08-07T05:59:45;13.07;;;6.93;;
69203;SDS011;56317;27.658;85.326;2023-08-07T06:02:12;13.93;;;6.68;;
69203;SDS011;56317;27.658;85.326;2023-08-07T06:04:39;15.55;;;7.72;;
69203;SDS011;56317;27.658;85.326;2023-08-07T06:07:06;15.73;;;8.30;;
69203;SDS011;56317;27.658;85.326;2023-08-07T06:09:34;11.23;;;7.68;;
69203;SDS011;56317;27.658;85.326;2023-08-07T06:12:02;12.68;;;6.75;;
69203;SDS011;56317;27.658;85.326;2023-08-07T06:14:29;12.38;;;6.72;;
69203;SDS011;56317;27.658;85.326;2023-08-07T06:16:56;10.15;;;6.85;;
69203;SDS011;56317;27.658;85.326;2023-08-07T06:19:25;10.43;;;7.03;;
69203;SDS011;56317;27.658;85.326;2023-08-07T06:21:53;9.30;;;4.40;;
69203;SDS011;56317;27.658;85.326;2023-08-07T06:24:20;6.25;;;4.03;;
69203;SDS011;56317;27.658;85.326;2023-08-07T06:26:47;5.50;;;2.85;;
69203;SDS011;56317;27.658;85.326;2023-08-07T06:29:15;6.80;;;3.75;;
69203;SDS011;56317;27.658;85.326;2023-08-07T06:31:42;6.07;;;3.45;;
69203;SDS011;56317;27.658;85.326;2023-08-07T06:34:10;7.68;;;4.90;;
69203;SDS011;56317;27.658;85.326;2023-08-07T06:36:37;8.70;;;3.90;;
69203;SDS011;56317;27.658;85.326;2023-08-07T06:39:04;5.65;;;3.72;;
69203;SDS011;56317;27.658;85.326;2023-08-07T06:41:33;7.45;;;4.45;;
69203;SDS011;56317;27.658;85.326;2023-08-07T06:44:01;6.13;;;2.67;;
69203;SDS011;56317;27.658;85.326;2023-08-07T06:46:28;4.35;;;2.47;;
69203;SDS011;56317;27.658;85.326;2023-08-07T06:48:56;6.30;;;3.08;;
69203;SDS011;56317;27.658;85.326;2023-08-07T06:51:23;8.40;;;4.57;;
69203;SDS011;56317;27.658;85.326;2023-08-07T06:53:50;7.80;;;4.68;;
69203;SDS011;56317;27.658;85.326;2023-08-07T06:56:17;7.05;;;4.10;;
69203;SDS011;56317;27.658;85.326;2023-08-07T06:58:44;6.75;;;3.50;;
69203;SDS011;56317;27.658;85.326;2023-08-07T07:01:12;6.25;;;3.28;;
69203;SDS011;56317;27.658;85.326;2023-08-07T07:03:39;6.05;;;3.38;;
69203;SDS011;56317;27.658;85.326;2023-08-07T07:06:06;5.85;;;2.95;;
69203;SDS011;56317;27.658;85.326;2023-08-07T07:08:34;6.28;;;3.40;;
69203;SDS011;56317;27.658;85.326;2023-08-07T07:11:01;5.55;;;3.03;;
69203;SDS011;56317;27.658;85.326;2023-08-07T07:13:29;5.32;;;3.50;;
69203;SDS011;56317;27.658;85.326;2023-08-07T07:15:57;5.07;;;3.25;;
69203;SDS011;56317;27.658;85.326;2023-08-07T07:18:24;6.93;;;3.72;;
69203;SDS011;56317;27.658;85.326;2023-08-07T07:20:56;5.00;;;3.03;;
69203;SDS011;56317;27.658;85.326;2023-08-07T07:23:26;6.75;;;3.67;;
69203;SDS011;56317;27.658;85.326;2023-08-07T07:25:54;6.78;;;2.83;;
69203;SDS011;56317;27.658;85.326;2023-08-07T07:28:21;10.45;;;3.47;;
69203;SDS011;56317;27.658;85.326;2023-08-07T07:30:51;4.88;;;2.85;;
69203;SDS011;56317;27.658;85.326;2023-08-07T07:33:24;6.82;;;3.47;;
69203;SDS011;56317;27.658;85.326;2023-08-07T07:35:53;5.63;;;2.90;;
69203;SDS011;56317;27.658;85.326;2023-08-07T07:38:20;7.80;;;3.03;;
69203;SDS011;56317;27.658;85.326;2023-08-07T07:40:55;8.15;;;2.42;;
69203;SDS011;56317;27.658;85.326;2023-08-07T07:43:23;14.20;;;4.60;;
69203;SDS011;56317;27.658;85.326;2023-08-07T07:45:51;6.70;;;3.00;;
69203;SDS011;56317;27.658;85.326;2023-08-07T07:48:18;5.78;;;2.70;;
69203;SDS011;56317;27.658;85.326;2023-08-07T07:50:45;6.05;;;2.65;;
69203;SDS011;56317;27.658;85.326;2023-08-07T07:53:13;11.93;;;3.65;;
69203;SDS011;56317;27.658;85.326;2023-08-07T07:55:40;14.30;;;3.00;;
69203;SDS011;56317;27.658;85.326;2023-08-07T07:58:12;17.38;;;4.22;;
69203;SDS011;56317;27.658;85.326;2023-08-07T08:00:39;7.93;;;3.33;;
69203;SDS011;56317;27.658;85.326;2023-08-07T08:03:07;6.45;;;3.38;;
69203;SDS011;56317;27.658;85.326;2023-08-07T08:05:35;8.35;;;4.00;;
69203;SDS011;56317;27.658;85.326;2023-08-07T08:08:02;7.03;;;3.88;;
69203;SDS011;56317;27.658;85.326;2023-08-07T08:10:29;5.72;;;3.67;;
69203;SDS011;56317;27.658;85.326;2023-08-07T08:12:56;7.47;;;3.10;;
69203;SDS011;56317;27.658;85.326;2023-08-07T08:15:26;6.55;;;3.40;;
69203;SDS011;56317;27.658;85.326;2023-08-07T08:17:53;5.75;;;2.80;;
69203;SDS011;56317;27.658;85.326;2023-08-07T08:20:23;4.95;;;2.50;;
69203;SDS011;56317;27.658;85.326;2023-08-07T08:22:50;5.43;;;2.70;;
69203;SDS011;56317;27.658;85.326;2023-08-07T08:25:18;5.45;;;2.70;;
69203;SDS011;56317;27.658;85.326;2023-08-07T08:27:45;6.32;;;2.58;;
69203;SDS011;56317;27.658;85.326;2023-08-07T08:30:12;5.03;;;2.55;;
69203;SDS011;56317;27.658;85.326;2023-08-07T08:32:40;4.07;;;2.30;;
69203;SDS011;56317;27.658;85.326;2023-08-07T08:35:07;5.38;;;2.60;;
69203;SDS011;56317;27.658;85.326;2023-08-07T08:37:34;7.25;;;2.72;;
69203;SDS011;56317;27.658;85.326;2023-08-07T08:40:02;6.43;;;3.40;;
69203;SDS011;56317;27.658;85.326;2023-08-07T08:42:32;8.88;;;2.67;;
69203;SDS011;56317;27.658;85.326;2023-08-07T08:45:00;9.55;;;3.38;;
69203;SDS011;56317;27.658;85.326;2023-08-07T08:47:28;13.30;;;2.83;;
69203;SDS011;56317;27.658;85.326;2023-08-07T08:50:01;6.32;;;2.75;;
69203;SDS011;56317;27.658;85.326;2023-08-07T08:52:32;6.70;;;2.45;;
69203;SDS011;56317;27.658;85.326;2023-08-07T08:55:01;4.55;;;2.60;;
69203;SDS011;56317;27.658;85.326;2023-08-07T08:57:29;9.85;;;2.88;;
69203;SDS011;56317;27.658;85.326;2023-08-07T08:59:57;6.45;;;2.42;;
69203;SDS011;56317;27.658;85.326;2023-08-07T09:02:27;9.10;;;2.78;;
69203;SDS011;56317;27.658;85.326;2023-08-07T09:04:55;7.53;;;2.72;;
69203;SDS011;56317;27.658;85.326;2023-08-07T09:07:22;12.15;;;3.25;;
69203;SDS011;56317;27.658;85.326;2023-08-07T09:09:51;18.33;;;4.47;;
69203;SDS011;56317;27.658;85.326;2023-08-07T09:12:20;7.88;;;3.63;;
69203;SDS011;56317;27.658;85.326;2023-08-07T09:14:50;7.70;;;2.83;;
69203;SDS011;56317;27.658;85.326;2023-08-07T09:17:23;7.05;;;3.28;;
69203;SDS011;56317;27.658;85.326;2023-08-07T09:19:59;6.10;;;3.40;;
69203;SDS011;56317;27.658;85.326;2023-08-07T09:22:33;6.55;;;2.95;;
69203;SDS011;56317;27.658;85.326;2023-08-07T09:25:02;6.63;;;3.00;;
69203;SDS011;56317;27.658;85.326;2023-08-07T09:27:35;9.50;;;3.90;;
69203;SDS011;56317;27.658;85.326;2023-08-07T09:30:06;8.85;;;3.30;;
69203;SDS011;56317;27.658;85.326;2023-08-07T09:32:36;19.30;;;3.73;;
69203;SDS011;56317;27.658;85.326;2023-08-07T09:35:13;11.25;;;3.17;;
69203;SDS011;56317;27.658;85.326;2023-08-07T09:37:46;14.45;;;4.05;;
69203;SDS011;56317;27.658;85.326;2023-08-07T09:40:15;7.75;;;3.17;;
69203;SDS011;56317;27.658;85.326;2023-08-07T09:42:49;17.27;;;4.03;;
69203;SDS011;56317;27.658;85.326;2023-08-07T09:45:24;5.72;;;3.17;;
69203;SDS011;56317;27.658;85.326;2023-08-07T09:48:09;5.70;;;2.97;;
69203;SDS011;56317;27.658;85.326;2023-08-07T09:50:39;7.70;;;3.45;;
69203;SDS011;56317;27.658;85.326;2023-08-07T09:53:09;7.53;;;2.90;;
69203;SDS011;56317;27.658;85.326;2023-08-07T09:55:41;5.72;;;2.72;;
69203;SDS011;56317;27.658;85.326;2023-08-07T09:58:11;9.20;;;3.00;;
69203;SDS011;56317;27.658;85.326;2023-08-07T10:00:42;7.40;;;2.72;;
69203;SDS011;56317;27.658;85.326;2023-08-07T10:03:14;7.10;;;2.83;;
69203;SDS011;56317;27.658;85.326;2023-08-07T10:05:45;7.75;;;2.85;;
69203;SDS011;56317;27.658;85.326;2023-08-07T10:08:12;13.82;;;3.50;;
69203;SDS011;56317;27.658;85.326;2023-08-07T10:10:40;12.55;;;3.83;;
69203;SDS011;56317;27.658;85.326;2023-08-07T10:13:08;9.85;;;3.03;;
69203;SDS011;56317;27.658;85.326;2023-08-07T10:18:09;7.93;;;2.85;;
69203;SDS011;56317;27.658;85.326;2023-08-07T10:20:37;8.23;;;3.50;;
69203;SDS011;56317;27.658;85.326;2023-08-07T10:25:39;11.35;;;4.38;;
69203;SDS011;56317;27.658;85.326;2023-08-07T10:28:11;6.82;;;3.90;;
69203;SDS011;56317;27.658;85.326;2023-08-07T10:30:42;8.88;;;4.25;;
69203;SDS011;56317;27.658;85.326;2023-08-07T10:33:10;8.65;;;4.15;;
69203;SDS011;56317;27.658;85.326;2023-08-07T10:35:44;8.18;;;5.18;;
69203;SDS011;56317;27.658;85.326;2023-08-07T10:38:18;8.63;;;3.75;;
69203;SDS011;56317;27.658;85.326;2023-08-07T10:41:08;7.28;;;4.15;;
69203;SDS011;56317;27.658;85.326;2023-08-07T10:43:39;10.00;;;4.50;;
69203;SDS011;56317;27.658;85.326;2023-08-07T10:46:12;11.23;;;4.30;;
69203;SDS011;56317;27.658;85.326;2023-08-07T10:48:44;8.93;;;4.20;;
69203;SDS011;56317;27.658;85.326;2023-08-07T10:51:13;8.25;;;4.93;;
69203;SDS011;56317;27.658;85.326;2023-08-07T10:53:48;8.23;;;4.70;;
69203;SDS011;56317;27.658;85.326;2023-08-07T10:56:18;7.55;;;4.22;;
69203;SDS011;56317;27.658;85.326;2023-08-07T10:58:56;8.85;;;5.35;;
69203;SDS011;56317;27.658;85.326;2023-08-07T11:03:57;11.00;;;4.50;;
69203;SDS011;56317;27.658;85.326;2023-08-07T11:06:29;7.75;;;4.28;;
69203;SDS011;56317;27.658;85.326;2023-08-07T11:09:02;8.95;;;4.35;;
69203;SDS011;56317;27.658;85.326;2023-08-07T11:11:44;8.30;;;4.30;;
69203;SDS011;56317;27.658;85.326;2023-08-07T11:14:16;6.38;;;3.10;;
69203;SDS011;56317;27.658;85.326;2023-08-07T11:16:45;6.95;;;3.30;;
69203;SDS011;56317;27.658;85.326;2023-08-07T11:19:14;7.20;;;3.47;;
69203;SDS011;56317;27.658;85.326;2023-08-07T11:21:43;4.18;;;2.33;;
69203;SDS011;56317;27.658;85.326;2023-08-07T11:24:13;3.72;;;2.17;;
69203;SDS011;56317;27.658;85.326;2023-08-07T11:26:45;6.03;;;2.67;;
69203;SDS011;56317;27.658;85.326;2023-08-07T11:29:16;4.35;;;1.98;;
69203;SDS011;56317;27.658;85.326;2023-08-07T11:31:44;3.85;;;1.70;;
69203;SDS011;56317;27.658;85.326;2023-08-07T11:34:12;3.40;;;1.70;;
69203;SDS011;56317;27.658;85.326;2023-08-07T11:36:42;3.78;;;1.40;;
69203;SDS011;56317;27.658;85.326;2023-08-07T11:39:10;2.08;;;1.48;;
69203;SDS011;56317;27.658;85.326;2023-08-07T11:41:38;2.67;;;1.35;;
69203;SDS011;56317;27.658;85.326;2023-08-07T11:44:08;6.32;;;2.17;;
69203;SDS011;56317;27.658;85.326;2023-08-07T11:46:36;5.53;;;2.63;;
69203;SDS011;56317;27.658;85.326;2023-08-07T11:49:03;4.75;;;2.10;;
69203;SDS011;56317;27.658;85.326;2023-08-07T11:51:31;4.65;;;2.40;;
69203;SDS011;56317;27.658;85.326;2023-08-07T11:53:58;4.40;;;1.85;;
69203;SDS011;56317;27.658;85.326;2023-08-07T11:56:27;2.42;;;1.38;;
69203;SDS011;56317;27.658;85.326;2023-08-07T11:58:56;2.05;;;0.90;;
69203;SDS011;56317;27.658;85.326;2023-08-07T12:01:25;2.13;;;1.20;;
69203;SDS011;56317;27.658;85.326;2023-08-07T12:06:35;2.15;;;1.15;;
69203;SDS011;56317;27.658;85.326;2023-08-07T12:09:08;4.95;;;1.10;;
69203;SDS011;56317;27.658;85.326;2023-08-07T12:11:38;2.47;;;1.30;;
69203;SDS011;56317;27.658;85.326;2023-08-07T12:14:05;2.70;;;1.25;;
69203;SDS011;56317;27.658;85.326;2023-08-07T12:16:33;3.55;;;1.55;;
69203;SDS011;56317;27.658;85.326;2023-08-07T12:19:01;4.13;;;1.63;;
69203;SDS011;56317;27.658;85.326;2023-08-07T12:21:29;3.15;;;1.63;;
69203;SDS011;56317;27.658;85.326;2023-08-07T12:24:01;2.45;;;1.50;;
69203;SDS011;56317;27.658;85.326;2023-08-07T12:26:28;5.65;;;2.00;;
69203;SDS011;56317;27.658;85.326;2023-08-07T12:28:56;3.00;;;1.60;;
69203;SDS011;56317;27.658;85.326;2023-08-07T12:31:23;9.60;;;1.75;;
69203;SDS011;56317;27.658;85.326;2023-08-07T12:33:50;7.63;;;2.78;;
69203;SDS011;56317;27.658;85.326;2023-08-07T12:36:17;5.97;;;2.15;;
69203;SDS011;56317;27.658;85.326;2023-08-07T12:38:44;9.18;;;3.90;;
69203;SDS011;56317;27.658;85.326;2023-08-07T12:41:12;18.45;;;4.80;;
69203;SDS011;56317;27.658;85.326;2023-08-07T12:43:39;14.45;;;3.20;;
69203;SDS011;56317;27.658;85.326;2023-08-07T12:46:06;10.32;;;2.85;;
69203;SDS011;56317;27.658;85.326;2023-08-07T12:48:34;14.27;;;3.60;;
69203;SDS011;56317;27.658;85.326;2023-08-07T12:51:01;13.43;;;2.80;;
69203;SDS011;56317;27.658;85.326;2023-08-07T12:53:28;8.88;;;3.28;;
69203;SDS011;56317;27.658;85.326;2023-08-07T12:55:57;17.77;;;5.30;;
69203;SDS011;56317;27.658;85.326;2023-08-07T12:58:24;18.30;;;4.30;;
69203;SDS011;56317;27.658;85.326;2023-08-07T13:00:54;19.20;;;4.63;;
69203;SDS011;56317;27.658;85.326;2023-08-07T13:03:21;16.55;;;5.40;;
69203;SDS011;56317;27.658;85.326;2023-08-07T13:05:49;25.95;;;8.07;;
69203;SDS011;56317;27.658;85.326;2023-08-07T13:08:16;25.35;;;10.80;;
69203;SDS011;56317;27.658;85.326;2023-08-07T13:10:43;34.33;;;14.80;;
69203;SDS011;56317;27.658;85.326;2023-08-07T13:13:10;17.48;;;7.47;;
69203;SDS011;56317;27.658;85.326;2023-08-07T13:15:37;15.40;;;7.10;;
69203;SDS011;56317;27.658;85.326;2023-08-07T13:18:04;13.48;;;6.90;;
69203;SDS011;56317;27.658;85.326;2023-08-07T13:20:31;14.73;;;6.18;;
69203;SDS011;56317;27.658;85.326;2023-08-07T13:22:59;14.43;;;7.60;;
69203;SDS011;56317;27.658;85.326;2023-08-07T13:25:27;12.35;;;6.75;;
69203;SDS011;56317;27.658;85.326;2023-08-07T13:27:54;12.52;;;6.47;;
69203;SDS011;56317;27.658;85.326;2023-08-07T13:30:21;13.82;;;7.13;;
69203;SDS011;56317;27.658;85.326;2023-08-07T13:32:48;14.57;;;6.32;;
69203;SDS011;56317;27.658;85.326;2023-08-07T13:35:15;10.70;;;5.97;;
69203;SDS011;56317;27.658;85.326;2023-08-07T13:37:42;9.65;;;5.38;;
69203;SDS011;56317;27.658;85.326;2023-08-07T13:40:09;9.65;;;5.05;;
69203;SDS011;56317;27.658;85.326;2023-08-07T13:42:37;9.95;;;4.85;;
69203;SDS011;56317;27.658;85.326;2023-08-07T13:45:04;7.90;;;4.05;;
69203;SDS011;56317;27.658;85.326;2023-08-07T13:47:33;8.38;;;4.25;;
69203;SDS011;56317;27.658;85.326;2023-08-07T13:50:01;9.80;;;5.85;;
69203;SDS011;56317;27.658;85.326;2023-08-07T13:52:28;13.68;;;6.07;;
69203;SDS011;56317;27.658;85.326;2023-08-07T13:54:55;8.52;;;5.30;;
69203;SDS011;56317;27.658;85.326;2023-08-07T13:57:22;8.35;;;4.78;;
69203;SDS011;56317;27.658;85.326;2023-08-07T13:59:49;7.82;;;4.40;;
69203;SDS011;56317;27.658;85.326;2023-08-07T14:02:17;10.90;;;5.00;;
69203;SDS011;56317;27.658;85.326;2023-08-07T14:04:44;7.53;;;4.15;;
69203;SDS011;56317;27.658;85.326;2023-08-07T14:07:11;8.45;;;4.65;;
69203;SDS011;56317;27.658;85.326;2023-08-07T14:09:38;9.80;;;4.60;;
69203;SDS011;56317;27.658;85.326;2023-08-07T14:12:06;9.70;;;4.43;;
69203;SDS011;56317;27.658;85.326;2023-08-07T14:14:33;8.90;;;4.72;;
69203;SDS011;56317;27.658;85.326;2023-08-07T14:17:00;11.32;;;5.10;;
69203;SDS011;56317;27.658;85.326;2023-08-07T14:19:28;11.45;;;5.43;;
69203;SDS011;56317;27.658;85.326;2023-08-07T14:21:55;10.75;;;4.03;;
69203;SDS011;56317;27.658;85.326;2023-08-07T14:24:22;12.90;;;5.00;;
69203;SDS011;56317;27.658;85.326;2023-08-07T14:26:49;11.95;;;5.47;;
69203;SDS011;56317;27.658;85.326;2023-08-07T14:29:16;11.82;;;5.25;;
69203;SDS011;56317;27.658;85.326;2023-08-07T14:31:43;13.45;;;5.85;;
69203;SDS011;56317;27.658;85.326;2023-08-07T14:34:10;11.65;;;4.88;;
69203;SDS011;56317;27.658;85.326;2023-08-07T14:36:37;8.68;;;4.45;;
69203;SDS011;56317;27.658;85.326;2023-08-07T14:39:06;10.80;;;4.35;;
69203;SDS011;56317;27.658;85.326;2023-08-07T14:41:33;9.55;;;4.78;;
69203;SDS011;56317;27.658;85.326;2023-08-07T14:44:00;11.38;;;5.05;;
69203;SDS011;56317;27.658;85.326;2023-08-07T14:46:27;11.43;;;5.10;;
69203;SDS011;56317;27.658;85.326;2023-08-07T14:48:54;10.82;;;4.68;;
69203;SDS011;56317;27.658;85.326;2023-08-07T14:51:21;9.95;;;4.47;;
69203;SDS011;56317;27.658;85.326;2023-08-07T14:53:49;12.43;;;4.63;;
69203;SDS011;56317;27.658;85.326;2023-08-07T14:56:16;9.07;;;4.18;;